Accueil
METAR-TAF:

METAR-TAF

Aéroports :

Xi'an, Chine

Aéroport international de Xi'an Xianyang

latitude: 34-26N, longitude: 108-45E, altitude: 479 m

Observation

Le bulletin a été fait il y a 1 heure et 10 minutes, à 07:00 UTC
Vent 10 kt de sud-ouest, variant entre sud et ouest
Température 35°C
Humidité 18%
Pression 1009 hPa
Visibilité 10 km ou plus
pas de nuages en-dessous de 1500 mètres et pas de cumulonimbus.

METAR: ZLXY 270700Z 22005MPS 170V280 CAVOK 35/07 Q1009 NOSIG

Heure: 16:10 (08:10 UTC)

Prévision

Le bulletin a été fait il y a 4 heures et 57 minutes, à 03:13 UTC
Prévision valable du 27 à 06 UTC au 28 à 06 UTC
Vent 8 kt de ouest/sud-ouest
Visibilité: 5000 m
brume sèche

TAF: ZLXY 270313Z 2706/2806 24004MPS 5000 HZ NSC TX35/2708Z TN16/2722Z

Observations et prévisions météorologiques de plus de 4000 aéroports (messages METAR et TAF).

Les stations disponibles sont représentées par des disques jaunes et rouges sur la carte.

Passer la souris dessus pour voir le nom de la station.

Cliquer dessus pour voir les observations et prévisions météorologiques.

Pour changer de carte: cliquez sur les boutons verts avec une croix noire pour zoomer, sur le bouton vert avec un tiret pour effectuer un zoom arrière, ou sur les flèches vertes pour les cartes adjacentes.


METAR-TAF: